Weather at Aeroclub Gregal

Public forecast

Using degrees Celsius for public forecast. Weather courtesy of forecast.io.

Closest aviation weather report (METAR) to Aeroclub Gregal

Closest report is Valencia Airport, 17.0 nm (31.4 km) NNW. Retrieved 2021/06/19 22:30 UTC (0 seconds ago):

LEVC 192230Z 27003KT 9999 FEW015 21/20 Q1014 NOSIG

Closest aviation forecast (TAF) to Aeroclub Gregal

Closest forecast is Valencia Airport, 17.0 nm (31.4 km) NNW. Retrieved 2021/06/19 18:27 UTC (4 hours ago):

TAF LEVC 191700Z 1918/2018 VRB05KT 9999 FEW020 TX32/2012Z TN18/2006Z PROB30 TEMPO 1922/2004 4000 TSRA FEW050CB